Elmer, New Jersey
Current Conditions -  °F | °C
As of 1:54 PM on Thursday 23 Oct 2014 (Local Time) from KMIV Reporting Station
Overcast Overcast  
Wind Chill: 53°   Ceiling: 3300
Heat Index: 53°   Visibility: 10mi
Dew Point: 49°   Wind: 16mph
Humidity: 86%   Direction: 310°NW
Pressure: 29.76"   Gusts: NA
Location:  39.6°N, 75.17°W
Report Text: KMIV 231754Z AUTO 31014KT 10SM SCT015 BKN033 OVC065 12/09 A2976 RMK AO2 RAE00B05E46 SLP076 P0000 60000 T01170094 10117 20106 58005
Loading
Personal Weather Stations






























Interactive Weather Map
Tropical Storm Tracking
New forecast layout! Learn more

10-Day Weather Forecast

Advertisements
Track Severe Weather on mobile